Latest Coastal Weather Observations for Mandurah

IDW60701

Issued at 12:05 am WST Friday 22 August 2014 (issued every 10 minutes, with the page automatically refreshed every 10 minutes)

About coastal observations | Map of coastal stations | Coastal observations for WA | Marine services | Other Formats
Station Details ID: 009977 Name: MANDURAH Lat: -32.52 Lon: 115.71 Height: 3.0 m
Data from the previous 72 hours. | See also: Recent months at Mandurah
Date/Time
WST
Temp

°C
Wind Pressure Rain
since 9am
mm
Weather Cloud Vis
km
Sea
Height
m
Swell
Dir
 
Speed
knots
Gust
knots
hPa Trend Height
m
Period
s
Dir
22/12:00am 16.9 W 18 23 1015.4 - 0.8 - - - - - - -
 
Date/Time
WST
Temp

°C
Wind Pressure Rain
since 9am
mm
Weather Cloud Vis
km
Sea
Height
m
Swell
Dir
 
Speed
knots
Gust
knots
hPa Trend Height
m
Period
s
Dir
21/11:30pm 16.9 W 19 26 1015.2 - 0.8 - - - - - - -
21/11:00pm 16.7 W 18 26 1015.1 - 0.8 - - - - - - -
21/10:30pm 16.0 WNW 14 21 1015.1 - 0.8 - - - - - - -
21/10:00pm 16.8 W 15 19 1014.9 - 0.6 - - - - - - -
21/09:30pm 16.5 W 14 21 1014.9 - 0.6 - - - - - - -
21/09:00pm 17.2 W 10 15 1014.6 - 0.6 - - - - - - -
21/08:30pm 17.1 WNW 12 15 1014.4 - 0.6 - - - - - - -
21/08:00pm 17.4 W 14 19 1014.2 - 0.6 - - - - - - -
21/07:30pm 17.4 WNW 13 16 1013.8 - 0.6 - - - - - - -
21/07:00pm 17.5 WNW 13 17 1013.7 - 0.6 - - - - - - -
21/06:30pm 17.6 W 13 17 1013.3 - 0.6 - - - - - - -
21/06:00pm 17.5 W 11 15 1012.9 - 0.6 - - - - - - -
21/05:30pm 17.5 W 9 13 1012.5 - 0.6 - - - - - - -
21/05:00pm 17.7 W 11 14 1012.1 - 0.6 - - - - - - -
21/04:30pm 17.8 W 10 14 1011.9 - 0.6 - - - - - - -
21/04:00pm 17.7 W 10 15 1011.8 - 0.6 - - - - - - -
21/03:30pm 17.3 W 8 13 1011.6 - 0.6 - - - - - - -
21/03:00pm 16.8 WNW 3 5 1011.5 - 0.4 - - - - - - -
21/02:30pm 16.4 W 4 8 1011.3 - 0.4 - - - - - - -
21/02:00pm 16.0 WSW 6 9 1011.2 - 0.4 - - - - - - -
21/01:30pm 17.6 W 12 17 1011.1 - 0.0 - - - - - - -
21/01:00pm 18.7 NW 17 22 1010.8 - 0.0 - - - - - - -
21/12:30pm 19.2 NW 20 24 1010.9 - 0.0 - - - - - - -
21/12:00pm 19.1 NW 13 17 1010.9 - 0.0 - - - - - - -
21/11:30am 18.9 WNW 12 16 1011.2 - 0.0 - - - - - - -
21/11:00am 19.0 WNW 13 16 1011.4 - 0.0 - - - - - - -
21/10:30am 18.5 WNW 15 19 1011.5 - 0.0 - - - - - - -
21/10:00am 18.9 W 12 18 1011.3 - 0.0 - - - - - - -
21/09:30am 17.9 W 12 21 1011.3 - 0.0 - - - - - - -
21/09:00am 18.5 WNW 13 17 1010.9 - 11.4 - - - - - - -
21/08:30am 18.0 W 15 20 1010.5 - 11.4 - - - - - - -
21/08:00am 17.9 W 13 18 1010.1 - 11.4 - - - - - - -
21/07:30am 17.5 W 18 25 1009.6 - 11.4 - - - - - - -
21/07:00am 16.8 W 15 22 1009.2 - 11.4 - - - - - - -
21/06:30am 16.9 W 14 20 1008.4 - 11.2 - - - - - - -
21/06:00am 17.0 NNW 15 20 1007.9 - 10.2 Recent precip. - - - - - -
21/05:37am 16.9 NW 21 25 1007.9 - 8.4 - - - - - - -
21/05:30am 16.7 N 23 29 1006.2 - 4.4 - - - - - - -
21/05:12am 16.9 N 23 33 1006.4 - 2.4 - - - - - - -
21/05:00am 17.3 N 23 28 1006.3 - 1.6 - - - - - - -
21/04:30am 17.3 N 21 26 1007.0 - 1.6 - - - - - - -
21/04:00am 17.2 N 22 27 1007.3 - 1.6 - - - - - - -
21/03:30am 17.2 N 20 25 1007.7 - 1.6 - - - - - - -
21/03:00am 16.8 N 19 25 1008.4 - 1.6 - - - - - - -
21/02:30am 16.4 N 17 20 1008.6 - 1.6 - - - - - - -
21/02:00am 16.3 NNE 16 19 1008.9 - 1.6 - - - - - - -
21/01:30am 16.6 N 16 20 1009.6 - 1.6 - - - - - - -
21/01:00am 15.9 NNE 14 17 1010.0 - 1.6 - - - - - - -
21/12:30am 15.7 NNE 10 15 1010.4 - 1.6 - - - - - - -
21/12:00am 15.9 NNE 13 18 1010.9 - 1.6 - - - - - - -
 
Date/Time
WST
Temp

°C
Wind Pressure Rain
since 9am
mm
Weather Cloud Vis
km
Sea
Height
m
Swell
Dir
 
Speed
knots
Gust
knots
hPa Trend Height
m
Period
s
Dir
20/11:30pm 16.3 NNE 13 17 1011.1 - 1.6 - - - - - - -
20/11:00pm 16.2 NNE 10 14 1011.5 - 1.6 - - - - - - -
20/10:30pm 16.0 NNE 10 15 1011.5 - 1.6 - - - - - - -
20/10:00pm 15.8 NNE 11 15 1012.4 - 1.6 - - - - - - -
20/09:30pm 16.2 NNE 9 15 1012.7 - 1.6 - - - - - - -
20/09:00pm 17.5 N 11 15 1012.8 - 1.6 - - - - - - -
20/08:30pm 17.9 N 13 16 1012.9 - 1.6 - - - - - - -
20/08:00pm 17.9 N 13 15 1013.0 - 1.6 - - - - - - -
20/07:30pm 17.7 NNW 12 14 1013.2 - 1.6 - - - - - - -
20/07:00pm 17.7 NNW 11 13 1013.1 - 1.6 - - - - - - -
20/06:30pm 17.3 NW 9 12 1013.0 - 1.6 - - - - - - -
20/06:00pm 17.6 NW 12 15 1013.0 - 1.6 - - - - - - -
20/05:30pm 17.8 NW 15 18 1013.1 - 1.6 - - - - - - -
20/05:00pm 17.3 N 10 15 1013.1 - 1.6 - - - - - - -
20/04:30pm 17.3 N 11 14 1013.0 - 1.6 - - - - - - -
20/04:00pm 17.5 N 11 14 1012.9 - 1.6 - - - - - - -
20/03:30pm 17.4 N 10 12 1013.1 - 1.6 - - - - - - -
20/03:00pm 17.4 N 11 13 1013.2 - 1.6 - - - - - - -
20/02:30pm 17.5 N 11 14 1013.3 - 1.6 - - - - - - -
20/02:00pm 17.4 N 11 13 1013.4 - 1.6 - - - - - - -
20/01:30pm 17.3 N 11 13 1013.6 - 1.6 - - - - - - -
20/01:00pm 16.2 N 10 12 1013.8 - 1.6 - - - - - - -
20/12:30pm 16.3 N 16 19 1014.6 - 1.4 - - - - - - -
20/12:00pm 16.2 NNW 12 14 1014.8 - 1.4 Recent precip. - - - - - -
20/11:30am 15.7 WSW 9 16 1014.9 - 1.4 - - - - - - -
20/11:00am 16.4 N 15 19 1015.0 - 0.0 - - - - - - -
20/10:30am 16.8 N 13 17 1015.0 - 0.0 - - - - - - -
20/10:00am 16.7 N 12 14 1015.3 - 0.0 - - - - - - -
20/09:30am 16.3 N 11 12 1015.5 - 0.0 - - - - - - -
20/09:00am 15.5 NNE 10 12 1015.6 - 2.0 - - - - - - -
20/08:30am 14.8 NE 6 7 1015.6 - 2.0 - - - - - - -
20/08:00am 14.4 NE 5 7 1015.5 - 2.0 - - - - - - -
20/07:30am 14.2 NE 5 8 1015.2 - 2.0 - - - - - - -
20/07:00am 14.5 NE 8 9 1015.0 - 2.0 - - - - - - -
20/06:30am 15.3 NNE 3 6 1014.6 - 2.0 - - - - - - -
20/06:00am 14.9 NE 5 7 1014.6 - 2.0 - - - - - - -
20/05:30am 14.7 N 9 11 1014.8 - 2.0 - - - - - - -
20/05:00am 14.5 NE 6 8 1014.9 - 2.0 - - - - - - -
20/04:30am 14.7 NNE 8 10 1015.0 - 1.8 - - - - - - -
20/04:00am 15.0 NNE 8 9 1015.1 - 1.8 - - - - - - -
20/03:30am 15.0 NE 2 4 1015.1 - 1.8 - - - - - - -
20/03:00am 14.9 N 1 2 1015.5 - 1.8 Rain - - - - - -
20/02:30am 15.1 NNW 12 15 1015.9 - 1.2 - - - - - - -
20/02:00am 15.4 NNE 6 9 1016.0 - 0.8 - - - - - - -
20/01:30am 15.1 NE 1 2 1016.2 - 0.8 - - - - - - -
20/01:00am 15.0 CALM 0 0 1016.3 - 0.8 - - - - - - -
20/12:30am 15.2 NE 2 3 1016.2 - 0.8 - - - - - - -
20/12:00am 15.3 ENE 2 4 1016.4 - 0.8 Recent precip. - - - - - -
 
Date/Time
WST
Temp

°C
Wind Pressure Rain
since 9am
mm
Weather Cloud Vis
km
Sea
Height
m
Swell
Dir
 
Speed
knots
Gust
knots
hPa Trend Height
m
Period
s
Dir
19/11:30pm 15.6 NNE 6 8 1016.4 - 0.0 - - - - - - -
19/11:00pm 14.7 NE 4 5 1016.5 - 0.0 - - - - - - -
19/10:30pm 14.9 ESE 2 3 1016.7 - 0.0 - - - - - - -
19/10:00pm 14.8 ESE 1 2 1016.8 - 0.0 - - - - - - -
19/09:30pm 14.8 S 2 3 1017.1 - 0.0 - - - - - - -
19/09:00pm 15.1 CALM 0 0 1017.0 - 0.0 - - - - - - -
19/08:30pm 15.2 S 1 2 1016.8 - 0.0 - - - - - - -
19/08:00pm 15.3 SSW 2 2 1016.8 - 0.0 - - - - - - -
19/07:30pm 15.6 SW 2 2 1016.6 - 0.0 - - - - - - -
19/07:00pm 15.9 SW 1 2 1016.3 - 0.0 - - - - - - -
19/06:30pm 16.3 SW 1 2 1016.0 - 0.0 - - - - - - -
19/06:00pm 17.0 SW 2 5 1016.2 - 0.0 - - - - - - -
19/05:30pm 17.7 SW 6 8 1016.0 - 0.0 - - - - - - -
19/05:00pm 18.2 SW 6 8 1015.9 - 0.0 - - - - - - -
19/04:30pm 18.6 WSW 5 7 1015.9 - 0.0 - - - - - - -
19/04:00pm 18.4 W 6 8 1015.8 - 0.0 - - - - - - -
19/03:30pm 19.2 WSW 6 8 1015.6 - 0.0 - - - - - - -
19/03:00pm 19.0 WSW 8 11 1015.5 - 0.0 - - - - - - -
19/02:30pm 18.8 WSW 9 12 1015.4 - 0.0 - - - - - - -
19/02:00pm 19.2 WSW 8 12 1015.4 - 0.0 - - - - - - -
19/01:30pm 19.1 WSW 9 13 1015.5 - 0.0 - - - - - - -
19/01:00pm 19.8 WSW 7 12 1015.5 - 0.0 - - - - - - -
19/12:30pm 18.6 SSW 5 8 1015.8 - 0.0 - - - - - - -
19/12:00pm 18.2 SW 4 7 1016.3 - 0.0 - - - - - - -
19/11:30am 18.3 NW 2 5 1016.5 - 0.0 - - - - - - -
19/11:00am 17.2 S 2 8 1016.7 - 0.0 - - - - - - -
19/10:30am 17.4 NNW 3 4 1016.8 - 0.0 - - - - - - -
19/10:00am 16.1 NNW 5 5 1016.9 - 0.0 - - - - - - -
19/09:30am 16.1 N 3 4 1016.8 - 0.0 - - - - - - -
19/09:00am 15.5 ESE 2 3 1016.8 - 6.2 - - - - - - -
19/08:30am 15.0 CALM 0 0 1016.5 - 6.2 - - - - - - -
19/08:00am 14.6 CALM 0 0 1016.5 - 6.2 - - - - - - -
19/07:30am 14.5 SE 2 4 1016.0 - 6.2 - - - - - - -
19/07:00am 14.5 WSW 4 6 1016.2 - 5.8 - - - - - - -
19/06:30am 14.7 N 4 4 1015.6 - 3.8 - - - - - - -
19/06:00am 14.0 NE 3 4 1015.2 - 3.8 Rain - - - - - -
19/05:30am 13.7 NE 3 4 1015.0 - 3.6 - - - - - - -
19/05:00am 13.9 CALM 0 0 1014.9 - 3.6 - - - - - - -
19/04:30am 13.9 CALM 0 0 1014.7 - 3.6 - - - - - - -
19/04:00am 14.4 CALM 0 0 1014.7 - 3.6 - - - - - - -
19/03:30am 15.0 CALM 0 0 1014.7 - 3.6 - - - - - - -
19/03:00am 15.2 SE 4 7 1014.7 - 3.6 - - - - - - -
19/02:30am 15.8 WSW 5 9 1014.8 - 3.6 - - - - - - -
19/02:00am 15.5 W 4 8 1015.0 - 3.6 - - - - - - -
19/01:30am 15.6 W 7 12 1015.0 - 3.6 - - - - - - -
19/01:00am 16.2 WSW 9 14 1015.0 - 3.4 - - - - - - -
19/12:30am 16.0 SW 5 9 1014.9 - 3.4 - - - - - - -

Other Formats:

Comma delimited format used in spreadsheet applications
http://www.bom.gov.au/fwo/IDW60701/IDW60701.94605.axf

JavaScript Object Notation format (JSON) in row-major order
http://www.bom.gov.au/fwo/IDW60701/IDW60701.94605.json